DAAS

Details ICAO DAAS (QSF)
Name Ain Arnat
Region Algeria
Timezone Africa/Algiers (UTC+1.0)
Plans Departing 12
Arriving 13
Stats Elevation 3,360 ft / 1,024 m (AMSL)
Location 36.178129° 5.324493°
Runways 1
Magnetic Variation 1.520° E
Sunrise 2018-05-23 04:28:36 UTC / 2018-05-23 05:28:36 Local
Sunset 2018-05-23 18:45:10 UTC / 2018-05-23 19:45:10 Local
Advertisement - Login to hide

Runways

ID Width Length Bearing (true) Bearing (mag) Surface Threshold Offset Overrun Length
09 125 ft / 38 m 6,320 ft / 1,926 m 88.49° 86.97° Asphalt 300 ft / 91 m 0 ft / 0 m
27 125 ft / 38 m 6,320 ft / 1,926 m 268.51° 266.99° Asphalt 329 ft / 100 m 0 ft / 0 m

Map

Weather


0- 5 10 15 20 25 30 35+ Temperature / ° C

Clouds and Precipitation
Forecast for 2018-05-23 12:00 UTC. Updated 40 minutes ago

Ground ~20,000 ft ~40,000 ft Winds

METAR

Not found

TAF

TAF DAAS 230500Z 2306/2406 VRB02KT 9999 FEW023 SCT030 BECMG 2310/2312 23012KT PROB30 TEMPO 2312/2320 FEW026CB BECMG 2320/2322 VRB02KT PROB30 TEMPO 2400/2406 2000 BR SCT008
Warning: Do not use this data for real-world aviation or navigation. No guarantee of current accuracy is given.